createdAt,value
2022-08-17T00:00:44.113Z,29.947
2022-08-17T00:05:17.812Z,29.947
2022-08-17T00:10:17.757Z,29.948
2022-08-17T00:15:18.040Z,29.948
2022-08-17T00:20:18.489Z,29.946
2022-08-17T00:25:17.944Z,29.946
2022-08-17T00:30:17.918Z,29.945
2022-08-17T00:35:17.916Z,29.945
2022-08-17T00:40:17.839Z,29.945
2022-08-17T00:45:17.948Z,29.947
2022-08-17T00:50:17.924Z,29.948
2022-08-17T00:55:18.021Z,29.948
2022-08-17T01:00:17.886Z,29.948
2022-08-17T01:05:18.609Z,29.948
2022-08-17T01:10:59.503Z,29.947
2022-08-17T01:15:18.120Z,29.949
2022-08-17T01:20:18.015Z,29.951
2022-08-17T01:25:17.947Z,29.950
2022-08-17T01:30:58.930Z,29.951
2022-08-17T01:35:18.833Z,29.952
2022-08-17T01:40:18.020Z,29.954
2022-08-17T01:45:18.229Z,29.957
2022-08-17T01:50:18.100Z,29.956
2022-08-17T01:55:17.995Z,29.953
2022-08-17T02:00:18.055Z,29.953
2022-08-17T02:05:18.123Z,29.953
2022-08-17T02:10:20.299Z,29.951
2022-08-17T02:15:18.170Z,29.951
2022-08-17T02:20:42.244Z,29.952
2022-08-17T02:25:18.088Z,29.950
2022-08-17T02:31:00.790Z,29.952
2022-08-17T02:35:19.968Z,29.951
2022-08-17T02:40:18.524Z,29.950
2022-08-17T02:45:18.454Z,29.950
2022-08-17T02:50:18.098Z,29.947
2022-08-17T02:55:18.147Z,29.947
2022-08-17T03:00:18.135Z,29.948
2022-08-17T03:05:16.357Z,29.949
2022-08-17T03:10:16.170Z,29.949
2022-08-17T03:15:16.433Z,29.950
2022-08-17T03:20:16.100Z,29.947
2022-08-17T03:25:16.188Z,29.946
2022-08-17T03:30:16.276Z,29.945
2022-08-17T03:35:16.448Z,29.946
2022-08-17T03:40:16.167Z,29.949
2022-08-17T03:45:16.537Z,29.949
2022-08-17T03:50:16.567Z,29.945
2022-08-17T03:55:16.288Z,29.944
2022-08-17T04:00:17.401Z,29.942
2022-08-17T04:05:17.368Z,29.941
2022-08-17T04:10:17.265Z,29.939
2022-08-17T04:15:17.364Z,29.940
2022-08-17T04:20:17.655Z,29.938
2022-08-17T04:25:17.376Z,29.936
2022-08-17T04:30:17.352Z,29.935
2022-08-17T04:35:17.308Z,29.936
2022-08-17T04:40:17.391Z,29.936
2022-08-17T04:45:17.728Z,29.935
2022-08-17T04:50:17.447Z,29.934
2022-08-17T04:55:17.794Z,29.932
2022-08-17T05:00:17.583Z,29.933
2022-08-17T05:05:17.505Z,29.931
2022-08-17T05:10:17.321Z,29.929
2022-08-17T05:15:17.714Z,29.928
2022-08-17T05:20:17.341Z,29.926
2022-08-17T05:25:17.487Z,29.923
2022-08-17T05:30:17.715Z,29.922
2022-08-17T05:35:17.523Z,29.921
2022-08-17T05:40:17.451Z,29.920
2022-08-17T05:45:28.108Z,29.919
2022-08-17T05:50:18.107Z,29.918
2022-08-17T05:55:17.704Z,29.918
2022-08-17T06:00:20.136Z,29.917
2022-08-17T06:05:17.652Z,29.917
2022-08-17T06:10:17.650Z,29.916
2022-08-17T06:15:17.656Z,29.915
2022-08-17T06:20:18.262Z,29.913
2022-08-17T06:25:17.536Z,29.912
2022-08-17T06:30:17.727Z,29.912
2022-08-17T06:35:17.606Z,29.910
2022-08-17T06:40:17.635Z,29.909
2022-08-17T06:45:17.800Z,29.903
2022-08-17T06:50:17.536Z,29.900
2022-08-17T06:55:18.906Z,29.900
2022-08-17T07:00:17.647Z,29.900
2022-08-17T07:05:17.755Z,29.900
2022-08-17T07:10:17.662Z,29.899
2022-08-17T07:15:17.914Z,29.899
2022-08-17T07:20:17.939Z,29.899
2022-08-17T07:25:17.683Z,29.900
2022-08-17T07:30:17.710Z,29.899
2022-08-17T07:35:17.652Z,29.898
2022-08-17T07:40:19.563Z,29.898
2022-08-17T07:45:18.393Z,29.896
2022-08-17T07:50:21.540Z,29.895
2022-08-17T07:55:17.816Z,29.893
2022-08-17T08:00:18.111Z,29.893
2022-08-17T08:05:30.008Z,29.893
2022-08-17T08:10:17.688Z,29.892
2022-08-17T08:15:17.926Z,29.890
2022-08-17T08:20:37.581Z,29.888
2022-08-17T08:25:18.089Z,29.889
2022-08-17T08:30:17.909Z,29.885
2022-08-17T08:35:17.886Z,29.886
2022-08-17T08:40:17.742Z,29.886
2022-08-17T08:45:17.920Z,29.886
2022-08-17T08:50:30.277Z,29.887
2022-08-17T08:55:18.043Z,29.886
2022-08-17T09:00:18.044Z,29.884
2022-08-17T09:05:18.100Z,29.885
2022-08-17T09:10:17.955Z,29.887
2022-08-17T09:15:17.954Z,29.885
2022-08-17T09:20:27.539Z,29.886
2022-08-17T09:25:18.165Z,29.886
2022-08-17T09:30:18.135Z,29.885
2022-08-17T09:35:18.060Z,29.886
2022-08-17T09:40:18.030Z,29.887
2022-08-17T09:45:18.107Z,29.890
2022-08-17T09:50:17.929Z,29.889
2022-08-17T09:55:18.055Z,29.890
2022-08-17T10:00:17.959Z,29.886
2022-08-17T10:05:18.251Z,29.888
2022-08-17T10:10:18.028Z,29.888
2022-08-17T10:15:18.538Z,29.889
2022-08-17T10:20:18.005Z,29.888
2022-08-17T10:25:22.115Z,29.892
2022-08-17T10:30:17.996Z,29.890
2022-08-17T10:35:18.077Z,29.891
2022-08-17T10:40:18.303Z,29.892
2022-08-17T10:45:18.365Z,29.895
2022-08-17T10:50:18.287Z,29.894
2022-08-17T10:55:18.279Z,29.894
2022-08-17T11:00:18.010Z,29.891
2022-08-17T11:05:18.300Z,29.892
2022-08-17T11:10:18.060Z,29.892
2022-08-17T11:15:18.413Z,29.892
2022-08-17T11:20:18.229Z,29.890
2022-08-17T11:25:18.185Z,29.889
2022-08-17T11:30:16.357Z,29.888
2022-08-17T11:35:16.270Z,29.887
2022-08-17T11:40:16.227Z,29.887
2022-08-17T11:45:19.414Z,29.885
2022-08-17T11:50:16.444Z,29.884
2022-08-17T11:55:34.383Z,29.885
2022-08-17T12:00:16.271Z,29.883
2022-08-17T12:05:17.082Z,29.884
2022-08-17T12:10:16.179Z,29.884
2022-08-17T12:15:16.432Z,29.884
2022-08-17T12:20:16.414Z,29.881
2022-08-17T12:25:16.646Z,29.879
2022-08-17T12:30:16.282Z,29.878
2022-08-17T12:35:16.275Z,29.878
2022-08-17T12:40:16.241Z,29.878
2022-08-17T12:45:16.615Z,29.878
2022-08-17T12:50:28.833Z,29.879
2022-08-17T12:55:16.428Z,29.879
2022-08-17T13:00:16.582Z,29.881
2022-08-17T13:05:16.538Z,29.878
2022-08-17T13:10:16.455Z,29.877
2022-08-17T13:15:16.523Z,29.876
2022-08-17T13:20:16.316Z,29.875
2022-08-17T13:25:16.386Z,29.874
2022-08-17T13:30:16.385Z,29.870
2022-08-17T13:35:29.459Z,29.872
2022-08-17T13:40:16.433Z,29.871
2022-08-17T13:45:34.874Z,29.870
2022-08-17T13:50:16.363Z,29.870
2022-08-17T13:55:16.572Z,29.869
2022-08-17T14:00:16.728Z,29.871
2022-08-17T14:05:16.675Z,29.873
2022-08-17T14:10:16.667Z,29.875
2022-08-17T14:15:16.675Z,29.875
2022-08-17T14:20:16.398Z,29.876
2022-08-17T14:25:16.547Z,29.875
2022-08-17T14:30:16.475Z,29.877
2022-08-17T14:35:16.447Z,29.877
2022-08-17T14:40:16.723Z,29.875
2022-08-17T14:45:30.315Z,29.877
2022-08-17T14:50:19.451Z,29.874
2022-08-17T14:55:16.646Z,29.874
2022-08-17T15:00:16.641Z,29.872
2022-08-17T15:05:16.765Z,29.873
2022-08-17T15:10:16.547Z,29.876
2022-08-17T15:15:17.004Z,29.877
2022-08-17T15:20:16.761Z,29.878
2022-08-17T15:25:16.718Z,29.878
2022-08-17T15:30:17.522Z,29.881
2022-08-17T15:35:16.708Z,29.881
2022-08-17T15:40:16.901Z,29.881
2022-08-17T15:45:17.031Z,29.879
2022-08-17T15:50:16.682Z,29.879
2022-08-17T15:55:20.792Z,29.879
2022-08-17T16:00:16.724Z,29.878
2022-08-17T16:05:17.540Z,29.877
2022-08-17T16:10:19.045Z,29.878
2022-08-17T16:15:16.754Z,29.879
2022-08-17T16:20:20.609Z,29.878
2022-08-17T16:25:16.873Z,29.879
2022-08-17T16:30:18.015Z,29.880
2022-08-17T16:35:16.926Z,29.876
2022-08-17T16:40:17.005Z,29.875
2022-08-17T16:45:16.952Z,29.873
2022-08-17T16:50:16.796Z,29.872
2022-08-17T16:55:16.871Z,29.869
2022-08-17T17:00:16.869Z,29.867
2022-08-17T17:05:17.159Z,29.865
2022-08-17T17:10:16.815Z,29.864
2022-08-17T17:15:21.861Z,29.864
2022-08-17T17:20:16.837Z,29.862
2022-08-17T17:25:17.016Z,29.859
2022-08-17T17:30:17.022Z,29.859
2022-08-17T17:35:16.872Z,29.857
2022-08-17T17:40:17.221Z,29.860
2022-08-17T17:45:17.372Z,29.859
2022-08-17T17:50:16.856Z,29.853
2022-08-17T17:55:16.929Z,29.853
2022-08-17T18:00:17.011Z,29.852
2022-08-17T18:05:17.615Z,29.850
2022-08-17T18:10:29.297Z,29.845
2022-08-17T18:15:17.476Z,29.846
2022-08-17T18:20:16.942Z,29.847
2022-08-17T18:25:17.030Z,29.844
2022-08-17T18:30:16.964Z,29.841
2022-08-17T18:35:17.078Z,29.844
2022-08-17T18:40:17.113Z,29.839
2022-08-17T18:45:17.261Z,29.838
2022-08-17T18:50:17.206Z,29.835
2022-08-17T18:55:17.281Z,29.833
2022-08-17T19:00:17.294Z,29.827
2022-08-17T19:05:17.282Z,29.827
2022-08-17T19:10:16.981Z,29.826
2022-08-17T19:15:17.173Z,29.825
2022-08-17T19:20:17.089Z,29.824
2022-08-17T19:25:17.334Z,29.823
2022-08-17T19:30:17.267Z,29.822
2022-08-17T19:35:17.772Z,29.822
2022-08-17T19:40:41.825Z,29.819
2022-08-17T19:45:17.289Z,29.818
2022-08-17T19:50:17.136Z,29.817
2022-08-17T19:55:20.538Z,29.818
2022-08-17T20:00:17.329Z,29.818
2022-08-17T20:05:17.514Z,29.817
2022-08-17T20:10:17.362Z,29.816
2022-08-17T20:15:17.840Z,29.816
2022-08-17T20:20:19.786Z,29.814
2022-08-17T20:25:17.280Z,29.810
2022-08-17T20:30:17.206Z,29.809
2022-08-17T20:35:17.513Z,29.810
2022-08-17T20:40:17.282Z,29.801
2022-08-17T20:45:17.323Z,29.804
2022-08-17T20:50:17.266Z,29.803
2022-08-17T20:55:17.623Z,29.800
2022-08-17T21:00:17.335Z,29.800
2022-08-17T21:05:17.332Z,29.798
2022-08-17T21:10:17.514Z,29.793
2022-08-17T21:15:17.576Z,29.793
2022-08-17T21:20:17.468Z,29.790
2022-08-17T21:25:17.584Z,29.790
2022-08-17T21:30:17.625Z,29.787
2022-08-17T21:35:17.420Z,29.792
2022-08-17T21:40:17.507Z,29.789
2022-08-17T21:45:17.658Z,29.787
2022-08-17T21:50:17.405Z,29.785
2022-08-17T21:55:17.356Z,29.784
2022-08-17T22:00:17.507Z,29.778
2022-08-17T22:05:17.598Z,29.781
2022-08-17T22:10:17.424Z,29.775
2022-08-17T22:15:17.420Z,29.775
2022-08-17T22:20:17.642Z,29.774
2022-08-17T22:25:17.611Z,29.775
2022-08-17T22:30:17.480Z,29.774
2022-08-17T22:35:17.448Z,29.775
2022-08-17T22:40:17.589Z,29.775
2022-08-17T22:45:17.814Z,29.771
2022-08-17T22:50:17.416Z,29.772
2022-08-17T22:55:17.726Z,29.773
2022-08-17T23:00:17.482Z,29.770
2022-08-17T23:05:17.621Z,29.774
2022-08-17T23:10:17.525Z,29.771
2022-08-17T23:15:17.994Z,29.772
2022-08-17T23:20:17.651Z,29.769
2022-08-17T23:25:18.152Z,29.773
2022-08-17T23:30:17.622Z,29.772
2022-08-17T23:35:17.730Z,29.775
2022-08-17T23:40:17.581Z,29.773
2022-08-17T23:45:17.857Z,29.772
2022-08-17T23:50:17.694Z,29.773
2022-08-17T23:55:17.645Z,29.775
